Time;durP1;ratioP1;P1;durP2;ratioP2;P2;SDS_P1;SDS_P2;PMS_P1;PMS_P2;Temp;Humidity;BMP_temperature;BMP_pressure;BME280_temperature;BME280_humidity;BME280_pressure;Samples;Min_cycle;Max_cycle;Signal;HPM_P1;HPM_P2
2022/08/11 00:00:47;;;;;;;6.55;4.20;;;;;;;18.86;54.97;100149.09;5108757;28;20160;-68
2022/08/11 00:03:16;;;;;;;5.95;4.07;;;;;;;18.77;55.03;100145.31;5111324;28;20134;-70
2022/08/11 00:05:48;;;;;;;10.27;4.05;;;;;;;18.71;55.38;100144.94;5110497;28;20468;-69
2022/08/11 00:08:22;;;;;;;6.40;3.33;;;;;;;18.65;55.38;100143.56;5111325;28;20051;-70
2022/08/11 00:10:55;;;;;;;8.82;4.03;;;;;;;18.58;55.79;100145.88;5111749;27;20047;-70
2022/08/11 00:13:23;;;;;;;6.97;3.50;;;;;;;18.53;55.83;100155.19;5108044;28;20044;-70
2022/08/11 00:15:50;;;;;;;5.07;3.13;;;;;;;18.53;56.02;100163.19;5090702;28;20044;-70
2022/08/11 00:18:18;;;;;;;4.30;3.05;;;;;;;18.48;56.01;100154.69;5090676;28;20048;-69
2022/08/11 00:20:45;;;;;;;9.82;4.05;;;;;;;18.45;56.03;100150.44;5091171;28;20130;-71
2022/08/11 00:23:16;;;;;;;5.30;3.78;;;;;;;18.44;56.16;100154.09;5090429;28;20055;-70
2022/08/11 00:25:45;;;;;;;9.10;4.47;;;;;;;18.41;56.33;100156.97;5088664;28;20051;-71
2022/08/11 00:28:31;;;;;;;5.32;4.05;;;;;;;18.32;56.85;100155.03;5090257;28;20082;-70
2022/08/11 00:30:59;;;;;;;11.65;3.58;;;;;;;18.26;56.68;100152.81;5090190;28;20048;-69
2022/08/11 00:33:33;;;;;;;4.15;3.10;;;;;;;18.17;57.09;100144.53;5089203;28;20048;-72
2022/08/11 00:36:03;;;;;;;13.07;3.42;;;;;;;18.10;57.12;100145.94;5089653;28;20050;-70
2022/08/11 00:38:34;;;;;;;7.55;3.45;;;;;;;18.08;57.30;100142.53;5091215;28;20054;-71
2022/08/11 00:41:10;;;;;;;7.80;3.28;;;;;;;18.05;57.91;100137.44;5091132;28;20044;-72
2022/08/11 00:43:50;;;;;;;5.38;3.42;;;;;;;18.00;57.65;100136.94;5091607;28;20054;-71
2022/08/11 00:46:29;;;;;;;6.88;4.00;;;;;;;17.97;57.80;100145.19;5090289;28;20044;-71
2022/08/11 00:49:10;;;;;;;5.28;3.40;;;;;;;17.92;58.03;100142.00;5085971;28;20127;-71
2022/08/11 00:51:59;;;;;;;7.00;3.50;;;;;;;17.91;58.11;100142.94;5071218;28;20457;-72
2022/08/11 00:54:53;;;;;;;7.03;3.60;;;;;;;17.92;58.03;100144.66;5095296;28;20074;-71
2022/08/11 00:57:37;;;;;;;6.80;3.58;;;;;;;17.91;57.82;100140.28;5067822;28;20036;-70
2022/08/11 01:00:23;;;;;;;5.20;3.53;;;;;;;17.92;57.70;100139.34;5069340;28;20040;-69
2022/08/11 01:03:18;;;;;;;4.85;3.35;;;;;;;17.91;57.85;100135.78;5069087;28;20106;-70
2022/08/11 01:06:19;;;;;;;7.00;4.05;;;;;;;17.86;57.78;100137.09;5078038;28;20050;-69
2022/08/11 01:09:14;;;;;;;4.75;3.45;;;;;;;17.78;58.05;100143.81;5089113;28;20058;-69
2022/08/11 01:12:16;;;;;;;5.78;4.20;;;;;;;17.72;58.19;100144.28;5089113;28;20419;-69
2022/08/11 01:15:20;;;;;;;5.03;4.13;;;;;;;17.68;58.25;100144.63;5083026;28;20492;-69
2022/08/11 01:18:15;;;;;;;4.40;3.30;;;;;;;17.68;57.89;100141.97;5088765;28;20139;-68
2022/08/11 01:21:09;;;;;;;4.78;3.40;;;;;;;17.67;58.33;100146.44;5089327;28;20050;-71
2022/08/11 01:24:13;;;;;;;5.82;3.67;;;;;;;17.65;58.13;100148.38;5088425;28;20503;-70
2022/08/11 01:27:13;;;;;;;6.38;3.55;;;;;;;17.65;58.15;100148.38;5088987;28;20044;-69
2022/08/11 01:30:15;;;;;;;7.18;4.43;;;;;;;17.62;58.12;100140.56;5060336;28;20048;-70
2022/08/11 01:33:23;;;;;;;7.00;3.45;;;;;;;17.60;58.34;100139.84;5068210;28;20558;-69
2022/08/11 01:36:33;;;;;;;6.28;3.55;;;;;;;17.57;57.78;100140.94;5062008;28;20052;-70
2022/08/11 01:39:43;;;;;;;5.05;3.70;;;;;;;17.53;57.70;100139.44;5068174;28;20060;-69
2022/08/11 01:45:42;;;;;;;6.63;4.15;;;;;;;17.39;59.15;100139.56;5067821;28;20060;-70
2022/08/11 01:48:20;;;;;;;6.72;3.78;;;;;;;17.29;59.39;100143.88;5068243;28;20044;-70
2022/08/11 01:51:03;;;;;;;5.85;3.65;;;;;;;17.25;59.43;100143.22;5096140;28;20135;-69
2022/08/11 01:53:44;;;;;;;6.18;4.05;;;;;;;17.21;59.23;100152.41;5108215;28;20054;-69
2022/08/11 01:56:27;;;;;;;5.50;4.30;;;;;;;17.17;58.91;100141.09;5107917;28;20155;-69
2022/08/11 01:59:01;;;;;;;5.63;3.58;;;;;;;17.14;58.91;100145.81;5108542;28;20048;-70
2022/08/11 02:01:43;;;;;;;7.45;4.82;;;;;;;17.10;59.25;100141.66;5109151;28;20051;-69
2022/08/11 02:04:19;;;;;;;7.63;4.25;;;;;;;17.09;59.89;100140.81;5107689;28;20464;-70
2022/08/11 02:06:55;;;;;;;7.82;4.18;;;;;;;17.07;59.46;100144.53;5107847;28;20056;-70
2022/08/11 02:09:51;;;;;;;4.90;3.38;;;;;;;17.03;60.19;100143.91;5108055;28;20050;-69
2022/08/11 02:12:31;;;;;;;5.32;3.75;;;;;;;16.98;60.50;100143.38;5108021;28;20142;-68
2022/08/11 02:15:07;;;;;;;5.03;3.88;;;;;;;16.94;60.42;100141.91;5107462;28;20079;-71
2022/08/11 02:17:49;;;;;;;11.23;4.43;;;;;;;16.88;60.47;100143.19;5107892;28;20047;-69
2022/08/11 02:26:18;;;;;;;8.23;4.03;;;;;;;16.83;60.03;100136.44;5070901;28;20084;-70
2022/08/11 02:28:55;;;;;;;8.45;3.47;;;;;;;16.82;60.10;100142.75;5087431;28;20056;-70
2022/08/11 02:34:21;;;;;;;5.72;3.70;;;;;;;16.74;60.29;100133.44;5086818;28;20581;-69
2022/08/11 02:36:55;;;;;;;6.68;3.78;;;;;;;16.71;60.78;100132.78;5085999;28;20044;-70
2022/08/11 02:39:29;;;;;;;5.95;3.83;;;;;;;16.65;60.42;100136.75;5081760;28;20055;-69
2022/08/11 02:42:25;;;;;;;6.00;4.40;;;;;;;16.61;60.72;100137.03;5087555;28;20047;-70
2022/08/11 02:45:16;;;;;;;5.10;3.55;;;;;;;16.55;61.33;100134.81;5088296;28;20040;-70
2022/08/11 02:50:49;;;;;;;7.35;3.80;;;;;;;16.49;61.01;100131.63;5086287;28;20682;-70
2022/08/11 02:53:23;;;;;;;4.88;3.38;;;;;;;16.48;60.92;100135.22;5087295;28;20048;-70
2022/08/11 02:56:02;;;;;;;5.67;4.13;;;;;;;16.50;60.82;100128.00;5086986;28;20056;-68
2022/08/11 02:58:40;;;;;;;7.72;4.40;;;;;;;16.49;60.91;100128.97;5084076;28;20292;-70
2022/08/11 03:01:17;;;;;;;5.03;3.92;;;;;;;16.49;60.69;100128.97;5086933;28;20040;-69
2022/08/11 03:03:53;;;;;;;5.38;3.88;;;;;;;16.39;61.11;100124.34;5086989;28;20052;-69
2022/08/11 03:06:29;;;;;;;5.45;3.92;;;;;;;16.38;60.85;100120.84;5086588;28;20147;-68
2022/08/11 03:09:04;;;;;;;5.05;3.92;;;;;;;16.35;61.38;100129.06;5087030;28;20048;-69
2022/08/11 03:17:47;;;;;;;5.60;3.75;;;;;;;16.31;60.93;100127.53;5086982;28;20427;-69
2022/08/11 03:20:28;;;;;;;6.20;4.20;;;;;;;16.23;61.30;100128.06;5090624;28;20062;-68
2022/08/11 03:23:07;;;;;;;7.97;4.47;;;;;;;16.22;61.41;100130.81;5090283;28;20048;-69
2022/08/11 03:25:45;;;;;;;6.90;4.57;;;;;;;16.16;61.66;100131.25;5090186;28;20071;-69
2022/08/11 03:28:28;;;;;;;7.63;4.22;;;;;;;16.17;61.57;100124.94;5090708;28;20052;-70
2022/08/11 03:31:10;;;;;;;8.80;3.33;;;;;;;16.19;61.21;100125.72;5090520;28;20105;-68
2022/08/11 03:34:02;;;;;;;6.63;3.40;;;;;;;16.17;61.57;100122.28;5090536;28;20082;-69
2022/08/11 03:36:57;;;;;;;5.35;3.67;;;;;;;16.15;61.83;100126.88;5090518;28;20466;-69
2022/08/11 03:39:37;;;;;;;5.50;3.80;;;;;;;16.05;61.76;100137.28;5090354;28;20083;-69
2022/08/11 03:42:15;;;;;;;4.35;3.60;;;;;;;16.02;61.69;100133.03;5094040;28;20043;-69
2022/08/11 03:44:55;;;;;;;6.03;3.92;;;;;;;16.01;61.64;100127.78;5101584;28;20155;-69
2022/08/11 03:47:45;;;;;;;6.25;3.80;;;;;;;15.98;61.92;100133.31;5110709;28;20502;-68
2022/08/11 03:50:27;;;;;;;5.43;4.10;;;;;;;15.98;61.54;100122.69;5086791;28;20051;-69
2022/08/11 03:53:10;;;;;;;8.35;4.60;;;;;;;15.99;61.67;100133.19;5090162;28;20135;-69
2022/08/11 03:56:04;;;;;;;6.18;4.00;;;;;;;15.97;61.41;100126.28;5089638;28;20052;-70
2022/08/11 03:58:59;;;;;;;5.38;4.68;;;;;;;15.91;61.75;100124.03;5090262;28;20050;-69
2022/08/11 04:01:58;;;;;;;5.05;4.45;;;;;;;15.87;61.83;100126.03;5090094;28;20044;-69
2022/08/11 04:05:18;;;;;;;4.70;3.70;;;;;;;15.82;62.01;100122.81;5089128;28;20051;-68
2022/08/11 04:08:14;;;;;;;7.57;4.18;;;;;;;15.78;62.25;100124.00;5072113;28;20424;-69
2022/08/11 04:11:01;;;;;;;5.60;4.68;;;;;;;15.77;61.97;100123.13;5090108;28;20044;-69
2022/08/11 04:15:58;;;;;;;6.03;4.68;;;;;;;15.75;62.04;100132.16;5089739;28;20418;-69
2022/08/11 04:16:45;;;;;;;6.00;4.82;;;;;;;15.73;62.09;100128.78;5089345;28;20101;-70
2022/08/11 04:19:44;;;;;;;6.70;4.30;;;;;;;15.73;61.80;100128.78;5089155;28;20048;-68
2022/08/11 04:22:33;;;;;;;6.85;4.32;;;;;;;15.66;62.34;100121.16;5089162;28;20054;-69
2022/08/11 04:25:18;;;;;;;5.13;4.15;;;;;;;15.63;62.11;100129.31;5088883;28;20048;-69
2022/08/11 04:28:26;;;;;;;7.30;4.28;;;;;;;15.62;62.36;100130.25;5090288;28;20058;-69
2022/08/11 04:31:10;;;;;;;5.82;4.53;;;;;;;15.59;62.26;100124.31;5064417;28;20055;-70
2022/08/11 04:33:54;;;;;;;6.50;4.57;;;;;;;15.61;62.13;100122.41;5089648;28;20167;-70
2022/08/11 04:39:43;;;;;;;7.43;4.28;;;;;;;15.63;62.06;100124.00;5092410;28;20439;-70
2022/08/11 04:46:01;;;;;;;9.20;4.90;;;;;;;15.54;62.28;100123.75;5068656;28;20557;-69
2022/08/11 05:02:06;;;;;;;6.63;4.93;;;;;;;15.57;62.57;100123.53;5068752;28;20052;-69
2022/08/11 05:08:13;;;;;;;7.57;4.10;;;;;;;15.68;62.44;100123.72;5068599;28;20055;-69
2022/08/11 05:11:03;;;;;;;12.75;4.10;;;;;;;15.76;62.28;100128.56;5068487;28;20063;-70
2022/08/11 05:36:12;;;;;;;4.18;3.50;;;;;;;16.56;59.48;100147.16;5087746;28;20129;-70
2022/08/11 05:58:10;;;;;;;6.65;3.90;;;;;;;17.44;58.91;100137.44;5087905;28;20105;-70
2022/08/11 06:00:42;;;;;;;5.65;4.13;;;;;;;17.58;58.83;100141.78;5087881;28;20095;-69
2022/08/11 06:03:09;;;;;;;5.72;3.83;;;;;;;17.69;58.45;100140.97;5087896;28;20056;-70
2022/08/11 06:05:40;;;;;;;5.22;3.22;;;;;;;17.83;58.69;100138.19;5086766;28;20139;-71
2022/08/11 06:08:09;;;;;;;5.70;3.95;;;;;;;17.96;58.31;100143.47;5086977;28;20473;-71
2022/08/11 06:10:39;;;;;;;6.90;3.53;;;;;;;18.10;58.41;100139.78;5084027;28;20557;-70
2022/08/11 06:13:08;;;;;;;7.72;3.90;;;;;;;18.22;58.33;100150.38;5087069;28;20051;-71
2022/08/11 06:15:44;;;;;;;8.70;4.28;;;;;;;18.40;58.07;100137.44;5080090;28;20044;-53
2022/08/11 06:18:13;;;;;;;7.88;4.88;;;;;;;18.62;58.18;100141.13;5086186;28;20040;-47
2022/08/11 06:20:48;;;;;;;7.32;4.60;;;;;;;18.83;57.58;100141.34;5087960;28;20044;-48
2022/08/11 06:23:18;;;;;;;11.68;4.65;;;;;;;18.99;57.38;100138.31;5087123;28;20054;-48
2022/08/11 06:25:46;;;;;;;5.30;4.10;;;;;;;19.23;56.32;100139.03;5086592;28;20108;-50
2022/08/11 06:28:15;;;;;;;7.15;4.43;;;;;;;19.45;55.80;100143.50;5087322;28;20048;-50
2022/08/11 06:30:45;;;;;;;4.72;3.35;;;;;;;19.55;56.11;100145.44;5094657;28;20051;-55
2022/08/11 06:33:16;;;;;;;7.03;4.47;;;;;;;19.66;55.67;100137.38;5100727;28;20127;-48
2022/08/11 06:35:55;;;;;;;5.47;3.88;;;;;;;19.80;55.54;100136.31;5106934;28;20043;-46
2022/08/11 06:38:39;;;;;;;7.70;4.82;;;;;;;19.98;54.11;100132.09;5100591;28;20109;-52
2022/08/11 06:41:30;;;;;;;12.57;5.18;;;;;;;20.19;53.09;100142.84;5087522;28;20044;-50
2022/08/11 06:44:06;;;;;;;10.98;5.68;;;;;;;20.37;53.56;100127.88;5079973;28;20056;-47
2022/08/11 06:46:37;;;;;;;9.13;4.43;;;;;;;20.48;53.13;100137.72;5086819;28;20044;-49
2022/08/11 06:51:10;;;;;;;7.57;5.07;;;;;;;20.66;51.62;100139.81;5079738;28;20044;-62
2022/08/11 06:51:55;;;;;;;6.60;3.53;;;;;;;20.87;51.55;100139.78;5087289;28;20052;-54
2022/08/11 06:54:22;;;;;;;10.77;4.22;;;;;;;21.05;50.88;100138.22;5079323;28;20060;-56
2022/08/11 07:02:26;;;;;;;9.30;4.25;;;;;;;21.74;46.94;100144.66;5085415;28;20082;-56
2022/08/11 07:04:59;;;;;;;9.70;3.78;;;;;;;21.94;44.84;100142.84;5083061;28;20063;-66
2022/08/11 07:16:33;;;;;;;11.10;4.25;;;;;;;22.70;44.46;100140.28;5105660;28;20666;-59
2022/08/11 07:30:13;;;;;;;13.02;5.32;;;;;;;23.65;40.89;100131.13;5087694;28;20059;-45
2022/08/11 07:32:49;;;;;;;8.82;5.13;;;;;;;23.92;40.87;100129.41;5091566;28;20052;-46
2022/08/11 07:35:20;;;;;;;7.78;4.53;;;;;;;24.25;39.20;100129.72;5088867;28;20084;-50
2022/08/11 07:37:50;;;;;;;5.93;4.05;;;;;;;24.61;38.88;100134.09;5089722;28;20052;-50
2022/08/11 07:40:22;;;;;;;10.38;4.53;;;;;;;24.94;37.82;100138.84;5089181;28;20043;-52
2022/08/11 07:42:50;;;;;;;5.65;4.35;;;;;;;25.19;37.35;100131.75;5088995;28;20419;-52
2022/08/11 07:53:33;;;;;;;10.90;4.80;;;;;;;25.82;36.11;100123.19;5090262;28;20062;-66
2022/08/11 07:56:02;;;;;;;6.70;4.13;;;;;;;26.27;35.79;100121.06;5101727;28;20054;-68
2022/08/11 08:17:56;;;;;;;5.50;2.97;;;;;;;29.11;31.02;100116.09;5088223;28;20101;-67
2022/08/11 08:20:27;;;;;;;4.50;2.97;;;;;;;29.23;30.42;100111.03;5084034;28;20048;-67
2022/08/11 08:22:56;;;;;;;9.10;3.35;;;;;;;29.17;31.05;100109.09;5091894;28;20054;-68
2022/08/11 08:25:25;;;;;;;5.32;3.20;;;;;;;29.02;28.14;100109.09;5096240;28;20624;-67
2022/08/11 08:27:55;;;;;;;6.03;3.42;;;;;;;29.03;28.20;100118.06;5083539;28;20078;-68
2022/08/11 08:33:08;;;;;;;2.70;2.10;;;;;;;29.07;25.61;100106.69;5088724;28;20055;-67
2022/08/11 08:35:36;;;;;;;62.05;11.68;;;;;;;29.09;25.48;100110.03;5088193;28;20678;-67
2022/08/11 08:38:03;;;;;;;7.60;3.30;;;;;;;29.04;24.18;100109.75;5089490;28;20051;-67
2022/08/11 08:40:30;;;;;;;4.53;2.30;;;;;;;28.95;24.62;100105.44;5089030;28;20646;-67
2022/08/11 08:43:04;;;;;;;3.97;2.33;;;;;;;28.79;25.40;100106.44;5088701;28;20423;-65
2022/08/11 08:45:35;;;;;;;6.43;3.20;;;;;;;28.77;25.21;100118.50;5087589;28;20151;-67
2022/08/11 08:48:03;;;;;;;4.53;2.88;;;;;;;28.92;24.80;100111.25;5087983;28;20361;-66
2022/08/11 08:53:23;;;;;;;9.50;3.88;;;;;;;29.20;25.35;100106.00;5067399;28;20617;-66
2022/08/11 08:55:50;;;;;;;4.22;2.60;;;;;;;29.10;24.36;100102.75;5069098;28;20050;-67
2022/08/11 08:58:21;;;;;;;12.88;3.10;;;;;;;29.22;24.32;100101.22;5087200;28;20054;-66
2022/08/11 09:00:51;;;;;;;9.70;2.80;;;;;;;29.37;24.12;100109.34;5087567;28;20055;-66
2022/08/11 09:03:19;;;;;;;6.70;2.50;;;;;;;29.50;24.88;100106.78;5083895;28;20040;-67
2022/08/11 09:05:47;;;;;;;5.85;2.70;;;;;;;29.34;23.63;100109.75;5086867;28;20465;-66
2022/08/11 09:08:14;;;;;;;7.10;2.55;;;;;;;29.37;23.95;100112.06;5087399;28;20046;-67
2022/08/11 09:10:41;;;;;;;6.82;2.70;;;;;;;29.34;23.71;100115.16;5087792;28;20135;-67
2022/08/11 09:13:08;;;;;;;3.95;2.50;;;;;;;29.25;24.42;100105.44;5087422;28;20134;-68
2022/08/11 09:15:36;;;;;;;4.50;2.60;;;;;;;29.50;23.76;100116.81;5086904;28;20495;-67
2022/08/11 09:18:05;;;;;;;3.22;2.42;;;;;;;29.90;23.53;100114.56;5088027;28;20059;-68
2022/08/11 09:20:34;;;;;;;3.63;2.60;;;;;;;30.25;24.18;100110.13;5095945;28;20048;-50
2022/08/11 09:28:37;;;;;;;3.83;2.63;;;;;;;31.26;23.56;100109.78;5087782;28;20055;-49
2022/08/11 09:31:06;;;;;;;8.00;2.30;;;;;;;31.99;21.12;100106.47;5073817;28;20049;-55
2022/08/11 09:33:35;;;;;;;3.65;2.75;;;;;;;32.60;21.12;100106.31;5067328;28;20496;-53
2022/08/11 09:40:27;;;;;;;5.28;2.85;;;;;;;33.49;20.41;100102.06;5066728;28;20076;-54
2022/08/11 09:41:36;;;;;;;5.72;2.55;;;;;;;34.93;19.03;100101.47;5083951;28;20438;-50
2022/08/11 09:46:50;;;;;;;7.40;3.30;;;;;;;35.87;17.94;100093.75;5087722;28;20569;-50
2022/08/11 09:49:20;;;;;;;4.18;3.15;;;;;;;36.10;18.00;100087.50;5087441;28;20053;-54
2022/08/11 09:51:49;;;;;;;5.05;2.88;;;;;;;36.19;17.85;100088.00;5083076;28;20037;-52
2022/08/11 09:54:16;;;;;;;4.95;4.28;;;;;;;35.83;17.57;100093.34;5086331;28;20044;-49
2022/08/11 09:59:28;;;;;;;6.13;3.40;;;;;;;36.41;16.83;100100.06;5087537;28;20420;-51
2022/08/11 10:01:58;;;;;;;4.97;2.80;;;;;;;36.45;16.95;100101.28;5087544;28;20074;-53
2022/08/11 10:04:31;;;;;;;7.38;3.47;;;;;;;36.31;16.59;100095.16;5086182;28;20051;-54
2022/08/11 10:07:00;;;;;;;3.08;2.72;;;;;;;36.38;17.44;100092.31;5087305;28;20511;-47
2022/08/11 10:09:29;;;;;;;3.47;3.10;;;;;;;36.59;16.53;100081.81;5086395;28;20163;-48
2022/08/11 10:11:58;;;;;;;4.90;3.13;;;;;;;36.08;16.78;100086.84;5072470;28;20048;-53
2022/08/11 10:17:14;;;;;;;5.57;2.80;;;;;;;36.07;16.83;100079.69;5093304;28;20514;-54
2022/08/11 10:19:43;;;;;;;8.98;3.17;;;;;;;35.73;17.35;100082.13;5087172;28;20044;-53
2022/08/11 10:27:43;;;;;;;6.72;3.63;;;;;;;35.26;17.37;100077.25;5087463;28;20055;-52
2022/08/11 10:35:45;;;;;;;4.32;3.42;;;;;;;36.26;17.05;100055.78;5086838;28;20087;-51
2022/08/11 10:38:14;;;;;;;3.88;3.28;;;;;;;36.55;16.43;100056.69;5081645;28;20511;-53
2022/08/11 10:40:46;;;;;;;4.10;2.80;;;;;;;36.52;16.55;100058.00;5083107;28;20117;-50
2022/08/11 10:43:13;;;;;;;5.80;3.20;;;;;;;35.49;17.36;100067.44;5099961;28;20051;-51
2022/08/11 10:48:31;;;;;;;8.23;3.28;;;;;;;35.62;17.40;100053.59;5086840;28;20055;-49
2022/08/11 10:51:14;;;;;;;4.13;2.78;;;;;;;36.23;17.07;100046.09;5098242;28;20411;-48
2022/08/11 10:59:14;;;;;;;5.88;3.17;;;;;;;34.62;18.41;100053.94;5086942;28;20434;-46
2022/08/11 11:01:43;;;;;;;7.70;3.70;;;;;;;33.89;19.35;100051.78;5106167;28;20050;-51
2022/08/11 11:04:15;;;;;;;5.18;2.80;;;;;;;33.77;19.42;100047.06;5096741;28;20044;-49
2022/08/11 11:06:51;;;;;;;25.00;7.95;;;;;;;33.38;19.98;100045.38;5086309;28;20137;-50
2022/08/11 11:09:23;;;;;;;14.82;6.72;;;;;;;32.78;20.77;100039.28;5074411;28;20849;-51
2022/08/11 11:20:23;;;;;;;4.32;3.17;;;;;;;31.51;21.92;100031.09;5086095;28;20063;-48
2022/08/11 11:22:53;;;;;;;16.85;4.15;;;;;;;31.44;22.37;100036.50;5085370;28;20416;-49
2022/08/11 11:25:37;;;;;;;6.82;3.13;;;;;;;31.50;22.56;100032.13;5085556;28;20092;-55
2022/08/11 11:28:24;;;;;;;5.13;3.15;;;;;;;31.40;23.36;100029.78;5086525;28;20062;-48
2022/08/11 11:31:03;;;;;;;8.73;3.13;;;;;;;31.23;22.25;100028.44;5086241;28;20056;-52
2022/08/11 11:33:47;;;;;;;7.72;3.40;;;;;;;30.99;21.44;100038.84;5086206;28;20490;-49
2022/08/11 11:36:23;;;;;;;4.60;2.80;;;;;;;30.91;21.90;100028.09;5085506;28;20054;-50
2022/08/11 11:38:50;;;;;;;7.40;2.83;;;;;;;30.82;22.32;100034.75;5086186;28;20050;-51
2022/08/11 11:41:26;;;;;;;11.10;3.03;;;;;;;30.78;22.14;100037.03;5089858;28;20044;-53
2022/08/11 11:43:54;;;;;;;3.70;2.60;;;;;;;30.70;21.88;100030.91;5089853;28;20058;-48
2022/08/11 11:46:22;;;;;;;3.92;2.65;;;;;;;30.83;22.56;100030.19;5090027;28;20423;-52
2022/08/11 11:48:49;;;;;;;4.90;2.50;;;;;;;30.95;21.81;100032.13;5090082;28;20052;-50
2022/08/11 11:51:19;;;;;;;6.63;2.75;;;;;;;30.86;21.72;100029.75;5089619;28;20051;-57
2022/08/11 11:53:47;;;;;;;4.90;2.38;;;;;;;30.68;21.01;100027.56;5089891;28;20082;-68
2022/08/11 11:56:15;;;;;;;5.45;2.97;;;;;;;30.53;21.30;100028.50;5089083;28;20135;-51
2022/08/11 12:01:27;;;;;;;8.90;2.78;;;;;;;30.39;21.64;100030.28;5089349;28;20051;-53
2022/08/11 12:03:55;;;;;;;18.98;3.47;;;;;;;30.29;22.68;100028.97;5088603;28;20055;-50
2022/08/11 12:06:26;;;;;;;7.05;2.97;;;;;;;30.25;22.67;100024.97;5088788;28;20048;-49
2022/08/11 12:08:55;;;;;;;8.43;3.60;;;;;;;30.29;22.66;100020.81;5097100;28;20043;-50
2022/08/11 12:14:09;;;;;;;3.78;2.70;;;;;;;30.49;22.34;99999.19;5109090;28;20143;-48
2022/08/11 12:16:38;;;;;;;3.90;2.35;;;;;;;30.63;22.53;100000.09;5109985;27;20043;-48
2022/08/11 12:19:09;;;;;;;6.32;2.47;;;;;;;30.64;21.88;100007.22;5109744;28;20179;-51
2022/08/11 12:27:19;;;;;;;4.32;2.88;;;;;;;30.47;22.18;99998.53;5109084;28;20101;-51
2022/08/11 12:27:21;;;;;;;7.03;2.65;;;;;;;30.48;21.24;99992.06;5109854;28;20078;-47
2022/08/11 12:29:49;;;;;;;5.18;3.10;;;;;;;30.33;22.56;99992.19;5090575;28;20044;-54
2022/08/11 12:32:16;;;;;;;6.50;3.17;;;;;;;30.25;22.79;99993.19;5088985;28;20652;-48
2022/08/11 12:34:43;;;;;;;6.53;2.50;;;;;;;30.20;23.12;99987.47;5088420;28;20044;-54
2022/08/11 12:37:12;;;;;;;4.63;2.40;;;;;;;30.29;21.68;99980.00;5089103;28;20056;-48
2022/08/11 12:45:28;;;;;;;6.53;3.13;;;;;;;30.27;22.84;99974.75;5088895;28;20047;-50
2022/08/11 12:53:43;;;;;;;8.90;2.97;;;;;;;30.35;22.60;99962.91;5084925;28;20526;-52
2022/08/11 13:07:12;;;;;;;5.87;2.97;;;;;;;30.28;23.08;99946.53;5088989;28;20627;-53
2022/08/11 13:09:43;;;;;;;6.35;2.80;;;;;;;30.36;22.87;99948.25;5089191;28;20190;-45
2022/08/11 13:14:55;;;;;;;6.90;2.75;;;;;;;30.28;23.14;99945.69;5088781;28;20054;-51
2022/08/11 13:17:21;;;;;;;7.57;3.10;;;;;;;30.33;23.20;99941.34;5088544;28;20050;-48
2022/08/11 13:19:49;;;;;;;7.13;3.30;;;;;;;30.31;23.33;99948.00;5088993;28;20086;-47
2022/08/11 13:22:18;;;;;;;4.22;3.13;;;;;;;30.22;23.48;99944.56;5087887;28;20048;-51
2022/08/11 13:24:48;;;;;;;10.88;3.55;;;;;;;30.14;23.25;99947.47;5087732;28;20063;-48
2022/08/11 13:27:17;;;;;;;6.80;2.85;;;;;;;30.15;23.87;99939.09;5088305;28;20058;-47
2022/08/11 13:29:46;;;;;;;6.53;2.72;;;;;;;30.19;23.38;99942.25;5087883;28;20070;-49
2022/08/11 13:32:14;;;;;;;5.57;2.38;;;;;;;30.20;23.70;99921.34;5088025;28;20139;-51
2022/08/11 13:34:42;;;;;;;4.35;2.97;;;;;;;30.23;23.65;99929.13;5087362;28;20052;-47
2022/08/11 13:37:11;;;;;;;5.10;2.63;;;;;;;30.26;23.68;99923.31;5087788;28;20059;-47
2022/08/11 13:39:43;;;;;;;7.18;2.63;;;;;;;30.29;23.73;99925.59;5087359;28;20454;-47
2022/08/11 13:42:11;;;;;;;4.55;2.30;;;;;;;30.30;23.83;99927.28;5081253;28;20044;-49
2022/08/11 13:44:38;;;;;;;10.40;3.10;;;;;;;30.26;24.41;99929.56;5086661;28;20048;-49
2022/08/11 13:47:09;;;;;;;7.25;3.20;;;;;;;30.28;24.38;99919.34;5087719;28;20047;-46
2022/08/11 13:49:38;;;;;;;7.88;3.40;;;;;;;30.28;24.05;99916.63;5087913;28;20054;-45
2022/08/11 13:52:07;;;;;;;11.85;2.90;;;;;;;30.27;23.34;99914.09;5087442;28;20131;-49
2022/08/11 13:54:37;;;;;;;4.85;2.83;;;;;;;30.26;23.48;99898.81;5079393;28;20472;-51
2022/08/11 13:57:07;;;;;;;4.40;2.90;;;;;;;30.30;23.95;99911.81;5083349;28;20123;-45
2022/08/11 13:59:36;;;;;;;5.18;2.88;;;;;;;30.24;24.31;99901.69;5087419;28;20614;-46
2022/08/11 14:02:06;;;;;;;5.28;3.35;;;;;;;30.27;23.89;99911.38;5086741;28;20044;-49
2022/08/11 14:04:42;;;;;;;5.15;3.03;;;;;;;30.30;23.38;99910.94;5086519;28;20127;-50
2022/08/11 14:07:13;;;;;;;4.70;3.97;;;;;;;30.36;23.34;99907.44;5087098;28;20051;-50
2022/08/11 14:09:43;;;;;;;4.80;2.78;;;;;;;30.38;23.32;99899.94;5087769;28;20504;-48
2022/08/11 14:15:03;;;;;;;4.95;3.08;;;;;;;30.40;24.29;99895.13;5086350;28;20055;-48
2022/08/11 14:17:33;;;;;;;5.28;2.75;;;;;;;30.27;23.45;99878.72;5087099;28;20058;-49
2022/08/11 14:20:03;;;;;;;4.05;2.78;;;;;;;30.21;23.69;99893.13;5087646;28;20044;-48
2022/08/11 14:22:31;;;;;;;7.63;2.72;;;;;;;30.36;22.96;99885.69;5081680;28;20135;-48
2022/08/11 14:24:58;;;;;;;8.68;3.40;;;;;;;30.42;23.20;99882.13;5085989;28;20063;-49
2022/08/11 14:27:29;;;;;;;7.95;3.63;;;;;;;30.31;23.05;99880.00;5087675;28;20048;-46
2022/08/11 14:29:57;;;;;;;6.65;2.92;;;;;;;30.29;23.16;99872.03;5087070;28;20167;-49
2022/08/11 14:32:26;;;;;;;5.93;3.33;;;;;;;30.28;23.38;99872.25;5087180;28;20105;-45
2022/08/11 14:34:53;;;;;;;6.03;2.53;;;;;;;30.23;23.32;99880.16;5085501;28;20066;-48
2022/08/11 14:37:22;;;;;;;9.15;4.60;;;;;;;30.31;23.02;99878.13;5086839;28;20575;-51
2022/08/11 14:39:52;;;;;;;6.32;2.80;;;;;;;30.30;23.25;99886.47;5086418;28;20079;-48
2022/08/11 14:48:09;;;;;;;3.50;2.85;;;;;;;30.22;23.29;99859.41;5083182;28;20048;-48
2022/08/11 14:50:36;;;;;;;7.07;3.13;;;;;;;30.14;22.79;99861.28;5083901;28;20048;-48
2022/08/11 14:53:07;;;;;;;13.38;4.75;;;;;;;30.22;22.97;99859.41;5086513;28;20044;-49
2022/08/11 14:58:25;;;;;;;6.63;3.20;;;;;;;30.16;23.37;99870.06;5080049;28;20165;-47
2022/08/11 15:00:54;;;;;;;5.03;3.03;;;;;;;30.21;22.53;99855.88;5104732;28;20075;-50
2022/08/11 15:03:23;;;;;;;4.53;2.80;;;;;;;30.23;22.92;99859.22;5106393;28;20074;-49
2022/08/11 15:05:51;;;;;;;7.80;2.97;;;;;;;30.25;23.78;99856.31;5105820;28;20059;-48
2022/08/11 15:08:53;;;;;;;3.42;2.40;;;;;;;30.21;23.13;99855.03;5106386;28;20081;-50
2022/08/11 15:12:07;;;;;;;4.95;2.67;;;;;;;30.20;23.32;99843.31;5105874;28;20083;-51
2022/08/11 15:13:56;;;;;;;6.75;3.00;;;;;;;30.11;24.06;99850.81;5088826;28;20047;-49
2022/08/11 15:19:10;;;;;;;8.38;2.80;;;;;;;30.12;23.67;99844.31;5090380;28;20054;-51
2022/08/11 15:24:22;;;;;;;7.88;2.92;;;;;;;30.09;24.32;99839.28;5089828;28;20058;-54
2022/08/11 15:37:58;;;;;;;8.25;3.25;;;;;;;30.11;24.03;99820.88;5086962;28;20121;-53
2022/08/11 15:46:09;;;;;;;17.35;4.10;;;;;;;30.11;24.14;99820.06;5083950;28;20051;-53
2022/08/11 15:48:45;;;;;;;7.90;3.30;;;;;;;30.08;23.89;99813.16;5081607;28;20108;-50
2022/08/11 15:51:21;;;;;;;3.90;2.55;;;;;;;30.10;23.92;99815.63;5084396;28;20105;-55
2022/08/11 15:53:52;;;;;;;5.43;2.67;;;;;;;30.11;24.17;99811.91;5078494;28;20044;-51
2022/08/11 15:56:22;;;;;;;8.63;3.90;;;;;;;30.14;23.67;99815.03;5070631;28;20773;-68
2022/08/11 16:04:26;;;;;;;5.47;2.88;;;;;;;30.24;23.35;99809.22;5088555;28;20100;-69
2022/08/11 16:06:57;;;;;;;8.38;2.80;;;;;;;30.30;23.06;99804.88;5091874;28;20086;-67
2022/08/11 16:09:30;;;;;;;10.02;3.25;;;;;;;30.29;23.16;99795.06;5091224;28;20067;-67
2022/08/11 16:12:01;;;;;;;5.00;3.35;;;;;;;30.32;23.30;99795.50;5091395;28;20052;-68
2022/08/11 16:17:18;;;;;;;9.23;2.95;;;;;;;30.36;23.01;99790.47;5071291;28;20174;-67
2022/08/11 16:19:48;;;;;;;6.18;3.30;;;;;;;30.38;22.40;99791.13;5071403;28;20143;-66
2022/08/11 16:22:31;;;;;;;7.30;2.70;;;;;;;30.39;22.31;99795.50;5071302;28;20044;-67
2022/08/11 16:24:59;;;;;;;6.53;4.57;;;;;;;30.39;21.98;99785.44;5069819;28;20492;-68
2022/08/11 16:27:27;;;;;;;11.10;3.42;;;;;;;30.38;22.17;99778.34;5076374;28;20418;-66
2022/08/11 16:29:55;;;;;;;4.63;3.30;;;;;;;30.37;21.68;99781.25;5091030;28;20058;-66